Terminal Aerodrome Forecast
Issued by NWS Twin Cities, MN

Home | Current Version | Previous Version | Graphics & Text | Print | Product List | Glossary On
Versions: 1 2 3 4 5 6 7 8 9 10 11 12 13 14 15 16 17 18 19 20 21 22 23 24 25 26 27 28 29 30
000
FTUS43 KMPX 250056 AAA
TAFMSP
TAF AMD
KMSP 250056Z 2501/2606 VRB02KT P6SM BKN025 OVC100
     FM250500 03010KT 5SM -SN OVC015
     FM250700 03014G22KT P6SM -SN OVC014
     FM251000 03013KT P6SM BKN020
     FM251500 03010KT P6SM SCT030=

USA.gov is the U.S. government's official web portal to all federal, state and local government web resources and services.